EmailTwitter


Surface observations / Quebec / CYUL (71627)

Regions: Quebec | Canada | USA | Europe | France | UK | Elsewhere
Station
Display
Info & Location for CYUL (71627) | Help decoding METAR

Weather Conditions observed on 2019/04/23 at 16:00 UTC at MONTREAL INTL A, QB (CYUL)

Sky conditions: partly cloudy.

Temperature: 13.0 Celsius.

Dewpoint: 1.0 Celsius.

Relative Humidity: 44%

Windchill Factor: 11.

Winds: Northeast at 22 km/h or 12 knots.

Mean Sea level Pressure: 101.49 kilopascals.

Altimeter Setting (QNH): 101.49 kilopascals or 29.97 inches of mercury.

Horizontal visibility: 30.00 statute miles or 48.00 kilometers.

Height of the Ceiling: 6706 metres ( 22000 feet ).

Coded METAR:

CYUL 231600Z 06012KT 30SM FEW120 SCT150 BKN220 13/01 A2997 RMK AC1AC2CI3 PRESFR

SLP149=